createdAt,value
2023-05-12T00:00:46.404Z,100348.80
2023-05-12T00:03:19.179Z,100355.34
2023-05-12T00:05:51.463Z,100346.83
2023-05-12T00:08:23.506Z,100347.27
2023-05-12T00:10:56.012Z,100349.13
2023-05-12T00:13:29.145Z,100352.02
2023-05-12T00:16:01.254Z,100348.83
2023-05-12T00:18:33.369Z,100354.22
2023-05-12T00:21:05.747Z,100350.26
2023-05-12T00:23:37.859Z,100347.89
2023-05-12T00:26:09.963Z,100351.58
2023-05-12T00:28:42.277Z,100345.75
2023-05-12T00:31:14.612Z,100344.12
2023-05-12T00:33:46.873Z,100345.24
2023-05-12T00:36:19.112Z,100343.61
2023-05-12T00:38:51.501Z,100340.34
2023-05-12T00:41:23.789Z,100342.33
2023-05-12T00:43:56.212Z,100342.52
2023-05-12T00:46:28.883Z,100338.39
2023-05-12T00:49:01.608Z,100340.37
2023-05-12T00:51:34.172Z,100336.05
2023-05-12T00:54:06.556Z,100335.30
2023-05-12T00:56:39.955Z,100333.67
2023-05-12T00:59:13.130Z,100339.08
2023-05-12T01:01:46.343Z,100328.70
2023-05-12T01:04:18.977Z,100338.55
2023-05-12T01:06:54.929Z,100333.55
2023-05-12T01:09:27.566Z,100330.93
2023-05-12T01:12:00.377Z,100332.78
2023-05-12T01:14:34.287Z,100328.59
2023-05-12T01:17:09.401Z,100336.58
2023-05-12T01:19:50.256Z,100332.20
2023-05-12T01:22:23.701Z,100324.38
2023-05-12T01:25:08.000Z,100325.96
2023-05-12T01:27:42.351Z,100330.22
2023-05-12T01:30:20.317Z,100329.36
2023-05-12T01:32:54.052Z,100325.80
2023-05-12T01:35:26.320Z,100328.52
2023-05-12T01:38:00.054Z,100330.28
2023-05-12T01:40:32.145Z,100327.66
2023-05-12T01:43:04.489Z,100327.66
2023-05-12T01:45:37.466Z,100326.85
2023-05-12T01:48:09.810Z,100322.29
2023-05-12T01:50:42.594Z,100327.25
2023-05-12T01:53:16.286Z,100328.00
2023-05-12T01:55:48.428Z,100330.41
2023-05-12T01:58:20.666Z,100338.98
2023-05-12T02:00:53.733Z,100335.41
2023-05-12T02:03:25.842Z,100342.22
2023-05-12T02:05:59.658Z,100333.20
2023-05-12T02:08:31.890Z,100333.20
2023-05-12T02:11:11.528Z,100333.07
2023-05-12T02:13:47.028Z,100336.28
2023-05-12T02:16:19.836Z,100330.77
2023-05-12T02:18:52.271Z,100336.59
2023-05-12T02:21:25.300Z,100332.69
2023-05-12T02:23:57.803Z,100340.23
2023-05-12T02:26:30.793Z,100339.88
2023-05-12T02:29:03.251Z,100339.45
2023-05-12T02:31:35.629Z,100333.86
2023-05-12T02:34:09.495Z,100339.51
2023-05-12T02:36:41.755Z,100341.73
2023-05-12T02:39:14.265Z,100340.43
2023-05-12T02:41:46.560Z,100343.61
2023-05-12T02:44:20.382Z,100341.47
2023-05-12T02:46:52.849Z,100337.62
2023-05-12T02:49:25.216Z,100343.33
2023-05-12T02:51:57.808Z,100332.42
2023-05-12T02:54:29.974Z,100352.00
2023-05-12T02:57:05.146Z,100347.00
2023-05-12T02:59:37.745Z,100350.72
2023-05-12T03:02:10.260Z,100344.75
2023-05-12T03:04:43.861Z,100340.48
2023-05-12T03:07:16.502Z,100350.98
2023-05-12T03:09:49.153Z,100348.30
2023-05-12T03:12:21.359Z,100343.77
2023-05-12T03:14:53.446Z,100345.19
2023-05-12T03:17:25.566Z,100342.39
2023-05-12T03:19:58.428Z,100341.42
2023-05-12T03:22:30.731Z,100343.30
2023-05-12T03:25:04.219Z,100348.45
2023-05-12T03:27:37.026Z,100342.47
2023-05-12T03:30:10.213Z,100332.80
2023-05-12T03:32:42.935Z,100333.77
2023-05-12T03:35:15.528Z,100335.72
2023-05-12T03:37:48.133Z,100329.79
2023-05-12T03:40:20.463Z,100336.23
2023-05-12T03:42:53.048Z,100332.94
2023-05-12T03:45:25.451Z,100332.37
2023-05-12T03:47:58.648Z,100337.17
2023-05-12T03:50:31.798Z,100337.67
2023-05-12T03:53:04.293Z,100336.15
2023-05-12T03:55:38.512Z,100333.78
2023-05-12T03:58:11.092Z,100343.69
2023-05-12T04:00:44.308Z,100341.41
2023-05-12T04:03:16.413Z,100339.70
2023-05-12T04:05:48.678Z,100319.08
2023-05-12T04:08:21.092Z,100315.09
2023-05-12T04:10:58.727Z,100315.09
2023-05-12T04:13:33.128Z,100336.66
2023-05-12T04:16:05.878Z,100331.71
2023-05-12T04:18:38.650Z,100312.69
2023-05-12T04:21:12.648Z,100312.69
2023-05-12T04:23:45.079Z,100327.88
2023-05-12T04:26:17.267Z,100322.28
2023-05-12T04:28:49.431Z,100327.59
2023-05-12T04:31:21.710Z,100308.98
2023-05-12T04:33:56.154Z,100308.98
2023-05-12T04:36:29.484Z,100309.75
2023-05-12T04:41:53.574Z,100313.75
2023-05-12T04:44:26.208Z,100301.89
2023-05-12T04:46:58.861Z,100322.88
2023-05-12T04:49:33.351Z,100327.23
2023-05-12T04:52:06.076Z,100330.47
2023-05-12T04:54:39.146Z,100328.64
2023-05-12T04:57:11.426Z,100319.53
2023-05-12T04:59:44.648Z,100320.80
2023-05-12T05:02:17.551Z,100320.03
2023-05-12T05:04:50.844Z,100317.61
2023-05-12T05:07:24.237Z,100324.30
2023-05-12T05:09:57.295Z,100319.83
2023-05-12T05:12:31.240Z,100320.59
2023-05-12T05:15:03.846Z,100322.09
2023-05-12T05:17:36.860Z,100316.98
2023-05-12T05:20:12.667Z,100316.98
2023-05-12T05:22:45.035Z,100323.58
2023-05-12T05:25:17.060Z,100326.27
2023-05-12T05:27:50.699Z,100323.08
2023-05-12T05:30:23.111Z,100322.77
2023-05-12T05:32:55.704Z,100318.95
2023-05-12T05:35:28.441Z,100322.47
2023-05-12T05:38:01.203Z,100319.06
2023-05-12T05:40:48.832Z,100318.75
2023-05-12T05:43:09.973Z,100312.91
2023-05-12T05:45:42.543Z,100318.22
2023-05-12T05:48:14.862Z,100246.62
2023-05-12T05:50:47.295Z,100292.42
2023-05-12T05:53:20.439Z,100275.23
2023-05-12T05:55:53.673Z,100316.55
2023-05-12T05:58:28.007Z,100312.66
2023-05-12T06:01:02.417Z,100312.45
2023-05-12T06:03:37.068Z,100310.47
2023-05-12T06:06:09.833Z,100314.02
2023-05-12T06:08:42.132Z,100307.91
2023-05-12T06:11:15.972Z,100311.97
2023-05-12T06:13:48.953Z,100308.38
2023-05-12T06:16:21.745Z,100309.43
2023-05-12T06:18:54.586Z,100310.92
2023-05-12T06:21:27.758Z,100311.88
2023-05-12T06:23:59.982Z,100307.90
2023-05-12T06:26:34.814Z,100310.04
2023-05-12T06:29:08.982Z,100305.08
2023-05-12T06:31:41.318Z,100304.62
2023-05-12T06:34:13.911Z,100294.84
2023-05-12T06:36:46.617Z,100304.19
2023-05-12T06:39:19.138Z,100303.84
2023-05-12T06:41:52.237Z,100298.75
2023-05-12T06:44:25.490Z,100301.92
2023-05-12T06:46:57.636Z,100299.84
2023-05-12T06:49:31.769Z,100296.59
2023-05-12T06:52:05.926Z,100290.86
2023-05-12T06:54:38.567Z,100290.73
2023-05-12T06:57:11.057Z,100296.69
2023-05-12T06:59:43.709Z,100303.58
2023-05-12T07:02:17.569Z,100289.98
2023-05-12T07:04:50.001Z,100298.19
2023-05-12T07:07:22.897Z,100296.13
2023-05-12T07:09:55.250Z,100295.61
2023-05-12T07:12:27.616Z,100289.78
2023-05-12T07:15:00.598Z,100291.55
2023-05-12T07:17:34.452Z,100283.02
2023-05-12T07:20:07.371Z,100280.33
2023-05-12T07:22:39.942Z,100290.95
2023-05-12T07:25:13.434Z,100292.53
2023-05-12T07:27:47.272Z,100279.98
2023-05-12T07:30:20.163Z,100288.30
2023-05-12T07:32:53.031Z,100282.55
2023-05-12T07:35:25.873Z,100276.44
2023-05-12T07:37:58.244Z,100279.41
2023-05-12T07:40:30.539Z,100278.73
2023-05-12T07:43:03.007Z,100277.61
2023-05-12T07:45:36.510Z,100281.34
2023-05-12T07:48:09.791Z,100278.55
2023-05-12T07:50:42.838Z,100274.75
2023-05-12T07:53:15.361Z,100281.22
2023-05-12T07:55:48.103Z,100273.47
2023-05-12T07:58:20.814Z,100276.83
2023-05-12T08:00:54.577Z,100271.95
2023-05-12T08:03:26.929Z,100281.22
2023-05-12T08:05:59.188Z,100273.20
2023-05-12T08:08:31.757Z,100272.70
2023-05-12T08:11:04.737Z,100282.70
2023-05-12T08:13:38.796Z,100267.39
2023-05-12T08:16:11.151Z,100277.11
2023-05-12T08:18:43.659Z,100273.45
2023-05-12T08:21:16.569Z,100269.94
2023-05-12T08:23:48.730Z,100266.27
2023-05-12T08:26:21.697Z,100269.68
2023-05-12T08:28:53.932Z,100270.55
2023-05-12T08:31:27.848Z,100263.22
2023-05-12T08:34:09.671Z,100260.98
2023-05-12T08:36:35.251Z,100265.89
2023-05-12T08:39:08.518Z,100257.86
2023-05-12T08:41:44.896Z,100256.86
2023-05-12T08:44:17.939Z,100247.83
2023-05-12T08:46:50.576Z,100245.27
2023-05-12T08:49:24.265Z,100238.92
2023-05-12T08:51:58.646Z,100248.08
2023-05-12T08:54:31.615Z,100243.77
2023-05-12T08:57:09.066Z,100242.41
2023-05-12T08:59:43.194Z,100240.69
2023-05-12T09:02:17.360Z,100236.78
2023-05-12T09:04:50.088Z,100230.66
2023-05-12T09:07:25.032Z,100230.72
2023-05-12T09:10:00.029Z,100223.25
2023-05-12T09:12:36.617Z,100231.20
2023-05-12T09:15:12.095Z,100226.11
2023-05-12T09:17:44.972Z,100220.03
2023-05-12T09:20:27.781Z,100232.00
2023-05-12T09:22:51.438Z,100218.29
2023-05-12T09:25:24.333Z,100219.00
2023-05-12T09:27:57.768Z,100219.00
2023-05-12T09:30:35.971Z,100221.31
2023-05-12T09:33:14.092Z,100221.59
2023-05-12T09:35:47.318Z,100221.73
2023-05-12T09:38:20.461Z,100221.70
2023-05-12T09:40:52.853Z,100233.94
2023-05-12T09:43:25.705Z,100219.14
2023-05-12T09:45:58.383Z,100216.58
2023-05-12T09:48:32.658Z,100212.17
2023-05-12T09:51:04.328Z,100215.17
2023-05-12T09:53:39.716Z,100224.08
2023-05-12T09:56:14.869Z,100208.01
2023-05-12T09:58:49.235Z,100210.30
2023-05-12T10:01:25.836Z,100211.13
2023-05-12T10:03:59.644Z,100205.25
2023-05-12T10:06:37.511Z,100203.84
2023-05-12T10:09:18.566Z,100198.30
2023-05-12T10:11:54.081Z,100202.05
2023-05-12T10:14:27.066Z,100198.84
2023-05-12T10:17:01.762Z,100194.62
2023-05-12T10:19:34.430Z,100198.17
2023-05-12T10:22:09.319Z,100205.70
2023-05-12T10:24:42.988Z,100198.19
2023-05-12T10:27:17.393Z,100189.23
2023-05-12T10:29:51.544Z,100198.30
2023-05-12T10:32:24.716Z,100193.09
2023-05-12T10:34:57.244Z,100190.25
2023-05-12T10:37:31.193Z,100175.64
2023-05-12T10:40:05.109Z,100185.20
2023-05-12T10:42:42.623Z,100195.47
2023-05-12T10:45:19.445Z,100202.05
2023-05-12T10:47:52.524Z,100193.97
2023-05-12T10:50:31.069Z,100200.16
2023-05-12T10:53:04.760Z,100198.32
2023-05-12T10:55:39.879Z,100197.98
2023-05-12T10:58:13.219Z,100196.79
2023-05-12T11:00:55.803Z,100200.98
2023-05-12T11:03:29.389Z,100189.05
2023-05-12T11:06:05.384Z,100200.98
2023-05-12T11:08:40.225Z,100199.98
2023-05-12T11:11:13.653Z,100194.27
2023-05-12T11:13:47.009Z,100190.56
2023-05-12T11:16:19.469Z,100187.40
2023-05-12T11:19:03.909Z,100190.90
2023-05-12T11:21:38.152Z,100162.98
2023-05-12T11:24:15.149Z,100162.98
2023-05-12T11:26:49.298Z,100175.60
2023-05-12T11:29:22.177Z,100171.95
2023-05-12T11:31:55.122Z,100179.56
2023-05-12T11:34:28.517Z,100173.38
2023-05-12T11:37:01.349Z,100177.08
2023-05-12T11:39:34.711Z,100166.09
2023-05-12T11:42:13.998Z,100187.92
2023-05-12T11:44:50.630Z,100167.88
2023-05-12T11:47:23.215Z,100166.39
2023-05-12T11:49:56.842Z,100152.34
2023-05-12T11:52:29.467Z,100159.14
2023-05-12T11:55:03.415Z,100127.34
2023-05-12T11:57:39.702Z,100146.78
2023-05-12T12:00:13.446Z,100141.66
2023-05-12T12:02:46.907Z,100136.07
2023-05-12T12:05:22.188Z,100131.30
2023-05-12T12:07:56.471Z,100140.00
2023-05-12T12:10:28.918Z,100126.17
2023-05-12T12:13:02.482Z,100138.59
2023-05-12T12:15:35.037Z,100140.05
2023-05-12T12:18:07.470Z,100142.82
2023-05-12T12:20:39.895Z,100139.10
2023-05-12T12:23:12.604Z,100145.55
2023-05-12T12:25:45.198Z,100135.30
2023-05-12T12:28:17.718Z,100133.52
2023-05-12T12:30:50.076Z,100132.69
2023-05-12T12:33:22.705Z,100131.53
2023-05-12T12:35:55.489Z,100127.98
2023-05-12T12:38:27.821Z,100118.73
2023-05-12T12:41:00.793Z,100108.55
2023-05-12T12:43:33.443Z,100122.64
2023-05-12T12:46:06.316Z,100108.53
2023-05-12T12:48:38.240Z,100112.17
2023-05-12T12:51:11.116Z,100112.55
2023-05-12T12:53:46.660Z,100108.05
2023-05-12T12:56:19.751Z,100109.99
2023-05-12T12:58:53.980Z,100106.04
2023-05-12T13:01:26.862Z,100108.30
2023-05-12T13:04:00.355Z,100101.33
2023-05-12T13:06:32.935Z,100105.64
2023-05-12T13:09:05.629Z,100100.89
2023-05-12T13:11:38.632Z,100099.43
2023-05-12T13:14:11.008Z,100101.14
2023-05-12T13:16:43.548Z,100094.13
2023-05-12T13:19:16.582Z,100086.48
2023-05-12T13:21:49.666Z,100092.30
2023-05-12T13:24:22.193Z,100089.45
2023-05-12T13:26:55.371Z,100092.36
2023-05-12T13:29:27.499Z,100077.22
2023-05-12T13:31:59.914Z,100082.48
2023-05-12T13:34:32.338Z,100075.02
2023-05-12T13:37:04.695Z,100080.58
2023-05-12T13:39:37.272Z,100079.92
2023-05-12T13:42:09.978Z,100059.12
2023-05-12T13:44:43.328Z,100068.41
2023-05-12T13:47:16.361Z,100058.30
2023-05-12T13:49:48.832Z,100059.09
2023-05-12T13:52:21.044Z,100060.76
2023-05-12T13:54:55.051Z,100056.31
2023-05-12T13:57:26.449Z,100055.77
2023-05-12T13:59:58.759Z,100071.00
2023-05-12T14:02:33.130Z,100061.34
2023-05-12T14:05:06.360Z,100063.31
2023-05-12T14:07:38.822Z,100070.39
2023-05-12T14:10:12.536Z,100065.56
2023-05-12T14:12:45.473Z,100056.06
2023-05-12T14:17:51.029Z,100063.04
2023-05-12T14:20:23.390Z,100059.64
2023-05-12T14:22:55.868Z,100053.58
2023-05-12T14:25:29.984Z,100057.29
2023-05-12T14:28:03.011Z,100049.40
2023-05-12T14:30:36.700Z,100056.44
2023-05-12T14:33:09.203Z,100044.34
2023-05-12T14:35:41.704Z,100045.67
2023-05-12T14:38:15.428Z,100043.98
2023-05-12T14:40:49.580Z,100042.42
2023-05-12T14:43:22.136Z,100045.10
2023-05-12T14:45:57.856Z,100040.86
2023-05-12T14:48:30.272Z,100040.68
2023-05-12T14:51:03.399Z,100045.44
2023-05-12T14:53:36.534Z,100044.02
2023-05-12T14:56:08.744Z,100040.42
2023-05-12T14:58:41.476Z,100037.66
2023-05-12T15:01:13.869Z,100034.66
2023-05-12T15:03:47.144Z,100038.78
2023-05-12T15:06:19.313Z,100034.92
2023-05-12T15:08:53.472Z,100039.38
2023-05-12T15:11:26.074Z,100034.93
2023-05-12T15:13:58.352Z,100030.23
2023-05-12T15:16:30.978Z,100031.60
2023-05-12T15:19:04.208Z,100035.41
2023-05-12T15:21:36.985Z,100040.16
2023-05-12T15:24:09.595Z,100040.45
2023-05-12T15:26:42.988Z,100040.66
2023-05-12T15:29:15.332Z,100042.36
2023-05-12T15:31:49.627Z,100042.48
2023-05-12T15:34:22.669Z,100037.60
2023-05-12T15:36:55.245Z,100041.11
2023-05-12T15:39:27.615Z,100038.03
2023-05-12T15:42:01.269Z,100047.95
2023-05-12T15:44:33.741Z,100050.67
2023-05-12T15:47:08.013Z,100043.64
2023-05-12T15:49:40.660Z,100043.20
2023-05-12T15:52:13.055Z,100049.72
2023-05-12T15:54:45.410Z,100041.61
2023-05-12T15:57:17.489Z,100052.67
2023-05-12T15:59:50.219Z,100056.73
2023-05-12T16:02:23.620Z,100051.72
2023-05-12T16:04:56.371Z,100056.90
2023-05-12T16:07:31.284Z,100051.50
2023-05-12T16:10:03.890Z,100058.39
2023-05-12T16:12:36.032Z,100046.76
2023-05-12T16:15:08.803Z,100054.27
2023-05-12T16:17:41.631Z,100064.63
2023-05-12T16:20:15.759Z,100052.34
2023-05-12T16:22:48.707Z,100057.14
2023-05-12T16:25:21.643Z,100063.01
2023-05-12T16:27:54.022Z,100069.50
2023-05-12T16:30:26.570Z,100067.36
2023-05-12T16:32:58.879Z,100063.11
2023-05-12T16:35:31.428Z,100073.58
2023-05-12T16:38:04.076Z,100065.27
2023-05-12T16:40:36.439Z,100072.02
2023-05-12T16:43:08.535Z,100068.61
2023-05-12T16:45:41.027Z,100069.95
2023-05-12T16:48:13.432Z,100076.55
2023-05-12T16:50:45.697Z,100070.58
2023-05-12T16:53:18.137Z,100076.15
2023-05-12T16:55:50.652Z,100084.72
2023-05-12T16:58:23.269Z,100080.84
2023-05-12T17:00:55.612Z,100081.16
2023-05-12T17:03:29.692Z,100085.02
2023-05-12T17:06:02.075Z,100082.70
2023-05-12T17:08:37.588Z,100086.69
2023-05-12T17:11:10.507Z,100086.17
2023-05-12T17:13:44.041Z,100089.28
2023-05-12T17:16:17.434Z,100097.46
2023-05-12T17:21:24.293Z,100091.17
2023-05-12T17:23:57.708Z,100100.59
2023-05-12T17:26:30.288Z,100096.52
2023-05-12T17:29:02.849Z,100104.78
2023-05-12T17:31:35.645Z,100108.10
2023-05-12T17:34:07.879Z,100106.39
2023-05-12T17:36:40.532Z,100107.81
2023-05-12T17:39:15.019Z,100112.13
2023-05-12T17:41:47.842Z,100107.75
2023-05-12T17:44:20.715Z,100117.98
2023-05-12T17:46:53.220Z,100106.29
2023-05-12T17:49:25.468Z,100117.52
2023-05-12T17:51:57.696Z,100117.91
2023-05-12T17:54:29.922Z,100118.55
2023-05-12T17:57:02.491Z,100113.42
2023-05-12T17:59:34.720Z,100119.55
2023-05-12T18:02:07.966Z,100116.95
2023-05-12T18:04:40.688Z,100117.48
2023-05-12T18:07:13.183Z,100114.38
2023-05-12T18:09:46.030Z,100116.85
2023-05-12T18:12:19.192Z,100123.22
2023-05-12T18:14:51.861Z,100125.34
2023-05-12T18:17:24.398Z,100121.83
2023-05-12T18:19:56.848Z,100121.90
2023-05-12T18:22:29.254Z,100120.00
2023-05-12T18:25:01.847Z,100128.84
2023-05-12T18:27:34.623Z,100130.70
2023-05-12T18:30:07.508Z,100129.14
2023-05-12T18:32:41.922Z,100132.94
2023-05-12T18:35:13.670Z,100128.60
2023-05-12T18:37:45.412Z,100135.48
2023-05-12T18:40:17.735Z,100132.19
2023-05-12T18:42:50.994Z,100135.58
2023-05-12T18:45:23.584Z,100137.23
2023-05-12T18:47:55.917Z,100135.19
2023-05-12T18:50:28.666Z,100136.99
2023-05-12T18:53:00.925Z,100139.98
2023-05-12T18:55:33.468Z,100139.02
2023-05-12T18:58:06.058Z,100135.46
2023-05-12T19:00:38.589Z,100141.25
2023-05-12T19:03:10.779Z,100141.67
2023-05-12T19:05:44.797Z,100140.57
2023-05-12T19:08:21.419Z,100139.69
2023-05-12T19:10:53.829Z,100134.82
2023-05-12T19:13:25.964Z,100133.83
2023-05-12T19:15:58.676Z,100139.34
2023-05-12T19:18:31.622Z,100136.20
2023-05-12T19:21:03.887Z,100140.14
2023-05-12T19:23:36.384Z,100144.09
2023-05-12T19:26:10.234Z,100145.48
2023-05-12T19:28:42.893Z,100138.81
2023-05-12T19:31:16.241Z,100140.74
2023-05-12T19:33:49.065Z,100150.95
2023-05-12T19:36:21.380Z,100136.64
2023-05-12T19:38:54.363Z,100137.20
2023-05-12T19:41:29.023Z,100139.31
2023-05-12T19:44:01.482Z,100145.78
2023-05-12T19:46:33.530Z,100147.52
2023-05-12T19:49:06.589Z,100147.92
2023-05-12T19:51:38.508Z,100147.52
2023-05-12T19:54:10.779Z,100148.06
2023-05-12T19:56:42.955Z,100146.38
2023-05-12T19:59:15.126Z,100144.03
2023-05-12T20:01:49.649Z,100145.30
2023-05-12T20:04:21.026Z,100140.86
2023-05-12T20:06:54.560Z,100148.27
2023-05-12T20:09:26.823Z,100149.31
2023-05-12T20:11:59.420Z,100131.12
2023-05-12T20:14:31.508Z,100140.95
2023-05-12T20:17:05.527Z,100141.38
2023-05-12T20:19:37.825Z,100134.70
2023-05-12T20:22:10.141Z,100135.34
2023-05-12T20:24:42.607Z,100137.03
2023-05-12T20:27:14.648Z,100133.66
2023-05-12T20:29:47.079Z,100132.03
2023-05-12T20:32:19.363Z,100132.69
2023-05-12T20:34:52.243Z,100119.43
2023-05-12T20:37:25.120Z,100139.05
2023-05-12T20:39:57.672Z,100131.93
2023-05-12T20:42:29.944Z,100131.93
2023-05-12T20:45:02.258Z,100131.11
2023-05-12T20:47:37.437Z,100132.03
2023-05-12T20:50:10.911Z,100140.83
2023-05-12T20:52:43.425Z,100143.78
2023-05-12T20:55:15.373Z,100139.55
2023-05-12T20:57:47.418Z,100148.87
2023-05-12T21:00:20.289Z,100143.02
2023-05-12T21:02:52.698Z,100141.81
2023-05-12T21:05:24.828Z,100143.93
2023-05-12T21:07:57.048Z,100144.75
2023-05-12T21:10:29.120Z,100150.77
2023-05-12T21:13:01.216Z,100145.80
2023-05-12T21:15:33.319Z,100146.38
2023-05-12T21:18:05.617Z,100146.38
2023-05-12T21:20:38.108Z,100154.72
2023-05-12T21:23:11.716Z,100148.63
2023-05-12T21:25:43.745Z,100148.63
2023-05-12T21:28:15.977Z,100158.44
2023-05-12T21:30:48.133Z,100147.23
2023-05-12T21:33:20.549Z,100138.16
2023-05-12T21:35:52.614Z,100138.16
2023-05-12T21:38:25.070Z,100148.31
2023-05-12T21:40:57.828Z,100145.38
2023-05-12T21:43:29.950Z,100124.08
2023-05-12T21:46:04.244Z,100124.08
2023-05-12T21:48:36.704Z,100148.66
2023-05-12T21:51:09.024Z,100147.17
2023-05-12T21:53:40.970Z,100134.81
2023-05-12T21:56:14.540Z,100156.05
2023-05-12T21:58:46.648Z,100137.86
2023-05-12T22:01:20.140Z,100148.13
2023-05-12T22:03:52.254Z,100145.09
2023-05-12T22:06:24.220Z,100123.59
2023-05-12T22:08:56.293Z,100123.59
2023-05-12T22:11:28.453Z,100156.41
2023-05-12T22:14:00.616Z,100156.41
2023-05-12T22:16:41.231Z,100153.22
2023-05-12T22:19:06.864Z,100157.66
2023-05-12T22:21:39.363Z,100149.08
2023-05-12T22:24:11.552Z,100148.13
2023-05-12T22:26:52.785Z,100160.30
2023-05-12T22:29:25.128Z,100159.15
2023-05-12T22:31:57.494Z,100153.03
2023-05-12T22:34:29.978Z,100153.03
2023-05-12T22:37:02.675Z,100152.08
2023-05-12T22:39:35.154Z,100153.22
2023-05-12T22:42:07.579Z,100153.22
2023-05-12T22:44:39.930Z,100149.72
2023-05-12T22:47:12.468Z,100139.94
2023-05-12T22:49:44.756Z,100160.89
2023-05-12T22:52:17.215Z,100147.77
2023-05-12T22:54:50.820Z,100147.77
2023-05-12T22:57:23.663Z,100154.02
2023-05-12T22:59:55.911Z,100155.80
2023-05-12T23:02:28.219Z,100159.40
2023-05-12T23:05:00.185Z,100159.40
2023-05-12T23:07:33.439Z,100156.94
2023-05-12T23:10:05.993Z,100154.61
2023-05-12T23:12:38.403Z,100153.39
2023-05-12T23:15:11.182Z,100161.63
2023-05-12T23:17:43.726Z,100165.14
2023-05-12T23:20:18.784Z,100169.10
2023-05-12T23:22:51.178Z,100165.13
2023-05-12T23:25:24.060Z,100164.63
2023-05-12T23:27:56.252Z,100166.16
2023-05-12T23:30:30.110Z,100162.19
2023-05-12T23:33:02.517Z,100164.45
2023-05-12T23:35:36.013Z,100156.70
2023-05-12T23:38:08.330Z,100157.87
2023-05-12T23:40:40.684Z,100159.91
2023-05-12T23:43:13.000Z,100165.58
2023-05-12T23:45:45.837Z,100159.91
2023-05-12T23:48:18.066Z,100158.56
2023-05-12T23:50:50.183Z,100164.02
2023-05-12T23:53:22.154Z,100161.76
2023-05-12T23:55:54.629Z,100164.31
2023-05-12T23:58:26.863Z,100167.03
